sensor_id;sensor_type;location;lat;lon;timestamp;P1;durP1;ratioP1;P2;durP2;ratioP2
63499;SDS011;49654;51.142;14.924;2023-05-29T00:01:10;5.97;;;3.83;;
63499;SDS011;49654;51.142;14.924;2023-05-29T00:03:37;5.57;;;4.28;;
63499;SDS011;49654;51.142;14.924;2023-05-29T00:06:04;7.20;;;3.88;;
63499;SDS011;49654;51.142;14.924;2023-05-29T00:08:32;5.22;;;4.20;;
63499;SDS011;49654;51.142;14.924;2023-05-29T00:11:00;5.55;;;3.78;;
63499;SDS011;49654;51.142;14.924;2023-05-29T00:13:27;4.97;;;4.00;;
63499;SDS011;49654;51.142;14.924;2023-05-29T00:15:54;4.57;;;4.18;;
63499;SDS011;49654;51.142;14.924;2023-05-29T00:18:22;5.88;;;3.90;;
63499;SDS011;49654;51.142;14.924;2023-05-29T00:20:49;6.20;;;3.90;;
63499;SDS011;49654;51.142;14.924;2023-05-29T00:23:16;6.20;;;4.00;;
63499;SDS011;49654;51.142;14.924;2023-05-29T00:25:43;5.90;;;4.20;;
63499;SDS011;49654;51.142;14.924;2023-05-29T00:28:11;6.18;;;4.13;;
63499;SDS011;49654;51.142;14.924;2023-05-29T00:30:38;4.88;;;3.78;;
63499;SDS011;49654;51.142;14.924;2023-05-29T00:33:05;7.60;;;3.95;;
63499;SDS011;49654;51.142;14.924;2023-05-29T00:35:32;5.18;;;3.83;;
63499;SDS011;49654;51.142;14.924;2023-05-29T00:37:59;4.30;;;3.15;;
63499;SDS011;49654;51.142;14.924;2023-05-29T00:40:26;5.18;;;3.63;;
63499;SDS011;49654;51.142;14.924;2023-05-29T00:42:53;4.63;;;3.70;;
63499;SDS011;49654;51.142;14.924;2023-05-29T00:45:21;4.78;;;3.58;;
63499;SDS011;49654;51.142;14.924;2023-05-29T00:47:48;4.18;;;3.38;;
63499;SDS011;49654;51.142;14.924;2023-05-29T00:50:15;5.03;;;3.67;;
63499;SDS011;49654;51.142;14.924;2023-05-29T00:52:43;3.92;;;3.53;;
63499;SDS011;49654;51.142;14.924;2023-05-29T00:55:11;7.38;;;3.97;;
63499;SDS011;49654;51.142;14.924;2023-05-29T00:57:39;4.85;;;3.67;;
63499;SDS011;49654;51.142;14.924;2023-05-29T01:00:06;5.95;;;3.70;;
63499;SDS011;49654;51.142;14.924;2023-05-29T01:02:40;5.05;;;3.33;;
63499;SDS011;49654;51.142;14.924;2023-05-29T01:05:10;5.60;;;3.28;;
63499;SDS011;49654;51.142;14.924;2023-05-29T01:07:37;5.95;;;3.83;;
63499;SDS011;49654;51.142;14.924;2023-05-29T01:10:04;5.25;;;4.00;;
63499;SDS011;49654;51.142;14.924;2023-05-29T01:12:36;5.90;;;4.10;;
63499;SDS011;49654;51.142;14.924;2023-05-29T01:15:13;4.80;;;3.83;;
63499;SDS011;49654;51.142;14.924;2023-05-29T01:17:50;4.82;;;3.92;;
63499;SDS011;49654;51.142;14.924;2023-05-29T01:20:27;4.93;;;4.30;;
63499;SDS011;49654;51.142;14.924;2023-05-29T01:23:06;5.35;;;3.70;;
63499;SDS011;49654;51.142;14.924;2023-05-29T01:25:46;7.07;;;3.80;;
63499;SDS011;49654;51.142;14.924;2023-05-29T01:28:27;7.43;;;4.10;;
63499;SDS011;49654;51.142;14.924;2023-05-29T01:30:58;6.07;;;3.90;;
63499;SDS011;49654;51.142;14.924;2023-05-29T01:33:27;7.10;;;4.03;;
63499;SDS011;49654;51.142;14.924;2023-05-29T01:35:54;4.50;;;3.80;;
63499;SDS011;49654;51.142;14.924;2023-05-29T01:38:21;7.18;;;4.05;;
63499;SDS011;49654;51.142;14.924;2023-05-29T01:40:48;5.15;;;3.78;;
63499;SDS011;49654;51.142;14.924;2023-05-29T01:43:15;5.38;;;4.00;;
63499;SDS011;49654;51.142;14.924;2023-05-29T01:45:44;5.78;;;3.80;;
63499;SDS011;49654;51.142;14.924;2023-05-29T01:48:11;6.53;;;3.85;;
63499;SDS011;49654;51.142;14.924;2023-05-29T01:50:38;4.57;;;3.50;;
63499;SDS011;49654;51.142;14.924;2023-05-29T01:53:09;4.70;;;3.70;;
63499;SDS011;49654;51.142;14.924;2023-05-29T01:55:36;6.35;;;3.80;;
63499;SDS011;49654;51.142;14.924;2023-05-29T01:58:03;4.75;;;3.75;;
63499;SDS011;49654;51.142;14.924;2023-05-29T02:00:31;4.22;;;3.63;;
63499;SDS011;49654;51.142;14.924;2023-05-29T02:02:59;6.35;;;3.95;;
63499;SDS011;49654;51.142;14.924;2023-05-29T02:05:27;5.57;;;3.80;;
63499;SDS011;49654;51.142;14.924;2023-05-29T02:07:54;6.38;;;4.00;;
63499;SDS011;49654;51.142;14.924;2023-05-29T02:10:21;6.25;;;3.55;;
63499;SDS011;49654;51.142;14.924;2023-05-29T02:12:48;4.60;;;3.40;;
63499;SDS011;49654;51.142;14.924;2023-05-29T02:15:16;5.35;;;3.90;;
63499;SDS011;49654;51.142;14.924;2023-05-29T02:17:43;5.57;;;3.53;;
63499;SDS011;49654;51.142;14.924;2023-05-29T02:20:11;3.85;;;3.30;;
63499;SDS011;49654;51.142;14.924;2023-05-29T02:22:38;3.90;;;3.40;;
63499;SDS011;49654;51.142;14.924;2023-05-29T02:25:06;4.57;;;3.63;;
63499;SDS011;49654;51.142;14.924;2023-05-29T02:27:33;4.82;;;3.78;;
63499;SDS011;49654;51.142;14.924;2023-05-29T02:30:00;4.65;;;3.35;;
63499;SDS011;49654;51.142;14.924;2023-05-29T02:32:27;4.85;;;3.58;;
63499;SDS011;49654;51.142;14.924;2023-05-29T02:34:55;3.92;;;3.38;;
63499;SDS011;49654;51.142;14.924;2023-05-29T02:37:23;3.88;;;3.40;;
63499;SDS011;49654;51.142;14.924;2023-05-29T02:39:51;5.65;;;3.42;;
63499;SDS011;49654;51.142;14.924;2023-05-29T02:42:18;4.22;;;3.42;;
63499;SDS011;49654;51.142;14.924;2023-05-29T02:44:45;4.93;;;3.30;;
63499;SDS011;49654;51.142;14.924;2023-05-29T02:47:12;8.32;;;3.78;;
63499;SDS011;49654;51.142;14.924;2023-05-29T02:49:39;4.20;;;2.92;;
63499;SDS011;49654;51.142;14.924;2023-05-29T02:52:06;4.40;;;3.40;;
63499;SDS011;49654;51.142;14.924;2023-05-29T02:54:35;4.38;;;3.50;;
63499;SDS011;49654;51.142;14.924;2023-05-29T02:57:02;4.97;;;3.08;;
63499;SDS011;49654;51.142;14.924;2023-05-29T02:59:30;4.38;;;3.33;;
63499;SDS011;49654;51.142;14.924;2023-05-29T03:01:58;4.78;;;3.45;;
63499;SDS011;49654;51.142;14.924;2023-05-29T03:04:25;4.32;;;2.97;;
63499;SDS011;49654;51.142;14.924;2023-05-29T03:06:52;3.80;;;2.70;;
63499;SDS011;49654;51.142;14.924;2023-05-29T03:09:19;5.70;;;3.47;;
63499;SDS011;49654;51.142;14.924;2023-05-29T03:11:48;5.50;;;3.15;;
63499;SDS011;49654;51.142;14.924;2023-05-29T03:14:16;6.05;;;3.95;;
63499;SDS011;49654;51.142;14.924;2023-05-29T03:16:44;6.03;;;3.58;;
63499;SDS011;49654;51.142;14.924;2023-05-29T03:19:12;5.88;;;3.70;;
63499;SDS011;49654;51.142;14.924;2023-05-29T03:21:39;3.95;;;3.35;;
63499;SDS011;49654;51.142;14.924;2023-05-29T03:24:06;4.43;;;3.50;;
63499;SDS011;49654;51.142;14.924;2023-05-29T03:26:33;5.18;;;3.55;;
63499;SDS011;49654;51.142;14.924;2023-05-29T03:29:03;5.00;;;3.85;;
63499;SDS011;49654;51.142;14.924;2023-05-29T03:31:30;5.40;;;3.60;;
63499;SDS011;49654;51.142;14.924;2023-05-29T03:33:58;5.43;;;3.60;;
63499;SDS011;49654;51.142;14.924;2023-05-29T03:36:25;4.80;;;3.63;;
63499;SDS011;49654;51.142;14.924;2023-05-29T03:38:53;5.00;;;3.80;;
63499;SDS011;49654;51.142;14.924;2023-05-29T03:41:20;5.15;;;4.05;;
63499;SDS011;49654;51.142;14.924;2023-05-29T03:43:47;5.28;;;3.80;;
63499;SDS011;49654;51.142;14.924;2023-05-29T03:46:16;5.22;;;3.97;;
63499;SDS011;49654;51.142;14.924;2023-05-29T03:48:43;5.90;;;3.78;;
63499;SDS011;49654;51.142;14.924;2023-05-29T03:51:10;4.75;;;4.00;;
63499;SDS011;49654;51.142;14.924;2023-05-29T03:53:37;8.40;;;4.18;;
63499;SDS011;49654;51.142;14.924;2023-05-29T03:56:04;6.85;;;4.15;;
63499;SDS011;49654;51.142;14.924;2023-05-29T03:58:31;6.95;;;4.10;;
63499;SDS011;49654;51.142;14.924;2023-05-29T04:00:58;7.30;;;3.88;;
63499;SDS011;49654;51.142;14.924;2023-05-29T04:03:27;5.35;;;3.72;;
63499;SDS011;49654;51.142;14.924;2023-05-29T04:05:54;5.20;;;3.83;;
63499;SDS011;49654;51.142;14.924;2023-05-29T04:08:22;3.80;;;3.40;;
63499;SDS011;49654;51.142;14.924;2023-05-29T04:10:49;6.80;;;4.07;;
63499;SDS011;49654;51.142;14.924;2023-05-29T04:13:19;4.53;;;3.50;;
63499;SDS011;49654;51.142;14.924;2023-05-29T04:15:46;4.55;;;3.55;;
63499;SDS011;49654;51.142;14.924;2023-05-29T04:18:13;4.45;;;3.58;;
63499;SDS011;49654;51.142;14.924;2023-05-29T04:20:41;5.13;;;3.78;;
63499;SDS011;49654;51.142;14.924;2023-05-29T04:23:11;7.32;;;3.95;;
63499;SDS011;49654;51.142;14.924;2023-05-29T04:25:38;5.82;;;4.25;;
63499;SDS011;49654;51.142;14.924;2023-05-29T04:28:05;7.10;;;3.92;;
63499;SDS011;49654;51.142;14.924;2023-05-29T04:30:32;4.38;;;3.80;;
63499;SDS011;49654;51.142;14.924;2023-05-29T04:32:59;4.20;;;3.78;;
63499;SDS011;49654;51.142;14.924;2023-05-29T04:35:26;4.97;;;3.47;;
63499;SDS011;49654;51.142;14.924;2023-05-29T04:37:55;6.53;;;3.95;;
63499;SDS011;49654;51.142;14.924;2023-05-29T04:40:23;7.25;;;3.90;;
63499;SDS011;49654;51.142;14.924;2023-05-29T04:42:50;7.95;;;3.92;;
63499;SDS011;49654;51.142;14.924;2023-05-29T04:45:19;4.57;;;3.90;;
63499;SDS011;49654;51.142;14.924;2023-05-29T04:47:46;4.53;;;3.65;;
63499;SDS011;49654;51.142;14.924;2023-05-29T04:50:14;5.47;;;3.75;;
63499;SDS011;49654;51.142;14.924;2023-05-29T04:52:42;4.75;;;3.58;;
63499;SDS011;49654;51.142;14.924;2023-05-29T04:55:11;6.22;;;4.25;;
63499;SDS011;49654;51.142;14.924;2023-05-29T04:57:38;6.22;;;3.90;;
63499;SDS011;49654;51.142;14.924;2023-05-29T05:00:05;6.57;;;4.20;;
63499;SDS011;49654;51.142;14.924;2023-05-29T05:02:34;6.07;;;4.57;;
63499;SDS011;49654;51.142;14.924;2023-05-29T05:05:02;4.95;;;4.32;;
63499;SDS011;49654;51.142;14.924;2023-05-29T05:07:29;5.28;;;4.22;;
63499;SDS011;49654;51.142;14.924;2023-05-29T05:09:56;12.07;;;4.93;;
63499;SDS011;49654;51.142;14.924;2023-05-29T05:12:24;9.55;;;4.57;;
63499;SDS011;49654;51.142;14.924;2023-05-29T05:14:51;7.93;;;4.72;;
63499;SDS011;49654;51.142;14.924;2023-05-29T05:17:18;6.38;;;4.78;;
63499;SDS011;49654;51.142;14.924;2023-05-29T05:19:45;6.88;;;5.20;;
63499;SDS011;49654;51.142;14.924;2023-05-29T05:22:14;8.80;;;5.32;;
63499;SDS011;49654;51.142;14.924;2023-05-29T05:24:41;6.43;;;4.63;;
63499;SDS011;49654;51.142;14.924;2023-05-29T05:27:08;6.60;;;4.60;;
63499;SDS011;49654;51.142;14.924;2023-05-29T05:29:37;6.68;;;4.72;;
63499;SDS011;49654;51.142;14.924;2023-05-29T05:32:04;6.65;;;4.60;;
63499;SDS011;49654;51.142;14.924;2023-05-29T05:34:32;7.95;;;4.97;;
63499;SDS011;49654;51.142;14.924;2023-05-29T05:36:59;7.82;;;4.93;;
63499;SDS011;49654;51.142;14.924;2023-05-29T05:39:26;6.93;;;4.47;;
63499;SDS011;49654;51.142;14.924;2023-05-29T05:41:52;6.72;;;4.38;;
63499;SDS011;49654;51.142;14.924;2023-05-29T05:44:19;9.27;;;5.40;;
63499;SDS011;49654;51.142;14.924;2023-05-29T05:46:48;10.40;;;4.78;;
63499;SDS011;49654;51.142;14.924;2023-05-29T05:49:15;8.45;;;4.43;;
63499;SDS011;49654;51.142;14.924;2023-05-29T05:51:41;7.68;;;4.60;;
63499;SDS011;49654;51.142;14.924;2023-05-29T05:54:09;7.85;;;4.57;;
63499;SDS011;49654;51.142;14.924;2023-05-29T05:56:36;6.28;;;4.45;;
63499;SDS011;49654;51.142;14.924;2023-05-29T05:59:03;5.72;;;4.63;;
63499;SDS011;49654;51.142;14.924;2023-05-29T06:01:30;8.35;;;5.10;;
63499;SDS011;49654;51.142;14.924;2023-05-29T06:03:59;7.50;;;4.57;;
63499;SDS011;49654;51.142;14.924;2023-05-29T06:06:26;6.53;;;4.53;;
63499;SDS011;49654;51.142;14.924;2023-05-29T06:08:53;7.82;;;4.60;;
63499;SDS011;49654;51.142;14.924;2023-05-29T06:11:22;5.55;;;4.00;;
63499;SDS011;49654;51.142;14.924;2023-05-29T06:13:49;5.53;;;4.30;;
63499;SDS011;49654;51.142;14.924;2023-05-29T06:16:17;6.75;;;3.63;;
63499;SDS011;49654;51.142;14.924;2023-05-29T06:18:43;5.47;;;3.80;;
63499;SDS011;49654;51.142;14.924;2023-05-29T06:21:12;6.18;;;3.80;;
63499;SDS011;49654;51.142;14.924;2023-05-29T06:23:39;6.30;;;3.70;;
63499;SDS011;49654;51.142;14.924;2023-05-29T06:26:07;6.68;;;4.00;;
63499;SDS011;49654;51.142;14.924;2023-05-29T06:28:33;7.38;;;3.75;;
63499;SDS011;49654;51.142;14.924;2023-05-29T06:31:01;6.28;;;4.20;;
63499;SDS011;49654;51.142;14.924;2023-05-29T06:33:28;9.75;;;5.63;;
63499;SDS011;49654;51.142;14.924;2023-05-29T06:35:55;7.03;;;4.32;;
63499;SDS011;49654;51.142;14.924;2023-05-29T06:38:23;7.15;;;4.13;;
63499;SDS011;49654;51.142;14.924;2023-05-29T06:40:50;7.47;;;4.22;;
63499;SDS011;49654;51.142;14.924;2023-05-29T06:43:17;10.65;;;4.60;;
63499;SDS011;49654;51.142;14.924;2023-05-29T06:45:44;7.95;;;4.10;;
63499;SDS011;49654;51.142;14.924;2023-05-29T06:48:11;6.78;;;4.05;;
63499;SDS011;49654;51.142;14.924;2023-05-29T06:50:38;7.95;;;3.90;;
63499;SDS011;49654;51.142;14.924;2023-05-29T06:53:05;6.47;;;4.10;;
63499;SDS011;49654;51.142;14.924;2023-05-29T06:55:33;6.35;;;3.50;;
63499;SDS011;49654;51.142;14.924;2023-05-29T06:58:00;7.45;;;3.55;;
63499;SDS011;49654;51.142;14.924;2023-05-29T07:00:27;6.25;;;3.88;;
63499;SDS011;49654;51.142;14.924;2023-05-29T07:02:54;5.80;;;4.57;;
63499;SDS011;49654;51.142;14.924;2023-05-29T07:05:21;5.65;;;3.60;;
63499;SDS011;49654;51.142;14.924;2023-05-29T07:07:48;4.97;;;4.07;;
63499;SDS011;49654;51.142;14.924;2023-05-29T07:10:15;6.20;;;4.05;;
63499;SDS011;49654;51.142;14.924;2023-05-29T07:12:44;6.63;;;3.80;;
63499;SDS011;49654;51.142;14.924;2023-05-29T07:15:11;6.72;;;3.88;;
63499;SDS011;49654;51.142;14.924;2023-05-29T07:17:37;5.95;;;3.85;;
63499;SDS011;49654;51.142;14.924;2023-05-29T07:20:05;5.53;;;3.65;;
63499;SDS011;49654;51.142;14.924;2023-05-29T07:22:33;11.40;;;4.25;;
63499;SDS011;49654;51.142;14.924;2023-05-29T07:25:00;8.95;;;3.95;;
63499;SDS011;49654;51.142;14.924;2023-05-29T07:27:27;8.52;;;3.97;;
63499;SDS011;49654;51.142;14.924;2023-05-29T07:29:56;8.45;;;3.80;;
63499;SDS011;49654;51.142;14.924;2023-05-29T07:32:22;4.97;;;3.50;;
63499;SDS011;49654;51.142;14.924;2023-05-29T07:34:49;5.80;;;3.17;;
63499;SDS011;49654;51.142;14.924;2023-05-29T07:37:16;7.18;;;3.58;;
63499;SDS011;49654;51.142;14.924;2023-05-29T07:39:44;7.47;;;3.20;;
63499;SDS011;49654;51.142;14.924;2023-05-29T07:42:11;5.25;;;3.70;;
63499;SDS011;49654;51.142;14.924;2023-05-29T07:44:38;4.97;;;3.13;;
63499;SDS011;49654;51.142;14.924;2023-05-29T07:47:08;7.03;;;3.05;;
63499;SDS011;49654;51.142;14.924;2023-05-29T07:49:35;6.13;;;3.30;;
63499;SDS011;49654;51.142;14.924;2023-05-29T07:52:03;5.47;;;3.22;;
63499;SDS011;49654;51.142;14.924;2023-05-29T07:54:30;5.93;;;3.47;;
63499;SDS011;49654;51.142;14.924;2023-05-29T07:56:58;6.43;;;3.33;;
63499;SDS011;49654;51.142;14.924;2023-05-29T07:59:25;6.65;;;3.67;;
63499;SDS011;49654;51.142;14.924;2023-05-29T08:01:52;7.53;;;3.28;;
63499;SDS011;49654;51.142;14.924;2023-05-29T08:04:20;8.10;;;4.13;;
63499;SDS011;49654;51.142;14.924;2023-05-29T08:06:47;7.55;;;4.38;;
63499;SDS011;49654;51.142;14.924;2023-05-29T08:09:14;8.13;;;3.83;;
63499;SDS011;49654;51.142;14.924;2023-05-29T08:11:41;5.80;;;3.25;;
63499;SDS011;49654;51.142;14.924;2023-05-29T08:14:08;7.82;;;4.40;;
63499;SDS011;49654;51.142;14.924;2023-05-29T08:16:35;6.30;;;4.03;;
63499;SDS011;49654;51.142;14.924;2023-05-29T08:19:02;6.53;;;4.10;;
63499;SDS011;49654;51.142;14.924;2023-05-29T08:21:30;5.95;;;3.70;;
63499;SDS011;49654;51.142;14.924;2023-05-29T08:23:58;7.38;;;4.18;;
63499;SDS011;49654;51.142;14.924;2023-05-29T08:26:25;4.72;;;3.35;;
63499;SDS011;49654;51.142;14.924;2023-05-29T08:28:52;7.57;;;3.55;;
63499;SDS011;49654;51.142;14.924;2023-05-29T08:31:20;4.90;;;3.38;;
63499;SDS011;49654;51.142;14.924;2023-05-29T08:33:49;5.63;;;2.90;;
63499;SDS011;49654;51.142;14.924;2023-05-29T08:36:16;6.60;;;3.72;;
63499;SDS011;49654;51.142;14.924;2023-05-29T08:38:46;7.38;;;3.08;;
63499;SDS011;49654;51.142;14.924;2023-05-29T08:41:15;5.25;;;2.85;;
63499;SDS011;49654;51.142;14.924;2023-05-29T08:43:48;5.47;;;3.00;;
63499;SDS011;49654;51.142;14.924;2023-05-29T08:46:15;5.75;;;3.10;;
63499;SDS011;49654;51.142;14.924;2023-05-29T08:48:46;4.40;;;2.53;;
63499;SDS011;49654;51.142;14.924;2023-05-29T08:51:17;5.57;;;2.85;;
63499;SDS011;49654;51.142;14.924;2023-05-29T08:53:48;3.72;;;2.92;;
63499;SDS011;49654;51.142;14.924;2023-05-29T08:56:15;5.70;;;3.10;;
63499;SDS011;49654;51.142;14.924;2023-05-29T08:58:42;8.90;;;3.20;;
63499;SDS011;49654;51.142;14.924;2023-05-29T09:01:10;6.05;;;3.75;;
63499;SDS011;49654;51.142;14.924;2023-05-29T09:03:37;5.10;;;3.17;;
63499;SDS011;49654;51.142;14.924;2023-05-29T09:06:04;5.93;;;3.25;;
63499;SDS011;49654;51.142;14.924;2023-05-29T09:08:32;6.30;;;3.17;;
63499;SDS011;49654;51.142;14.924;2023-05-29T09:11:01;7.30;;;3.15;;
63499;SDS011;49654;51.142;14.924;2023-05-29T09:13:28;10.75;;;2.97;;
63499;SDS011;49654;51.142;14.924;2023-05-29T09:15:57;4.45;;;2.95;;
63499;SDS011;49654;51.142;14.924;2023-05-29T09:18:28;6.82;;;2.97;;
63499;SDS011;49654;51.142;14.924;2023-05-29T09:20:55;6.82;;;3.20;;
63499;SDS011;49654;51.142;14.924;2023-05-29T09:23:23;5.85;;;2.85;;
63499;SDS011;49654;51.142;14.924;2023-05-29T09:25:52;6.85;;;2.85;;
63499;SDS011;49654;51.142;14.924;2023-05-29T09:28:24;5.28;;;2.92;;
63499;SDS011;49654;51.142;14.924;2023-05-29T09:30:53;6.22;;;2.92;;
63499;SDS011;49654;51.142;14.924;2023-05-29T09:33:21;4.18;;;2.85;;
63499;SDS011;49654;51.142;14.924;2023-05-29T09:35:49;4.88;;;3.35;;
63499;SDS011;49654;51.142;14.924;2023-05-29T09:38:17;7.13;;;3.30;;
63499;SDS011;49654;51.142;14.924;2023-05-29T09:40:45;5.57;;;3.10;;
63499;SDS011;49654;51.142;14.924;2023-05-29T09:43:13;6.43;;;3.20;;
63499;SDS011;49654;51.142;14.924;2023-05-29T09:45:44;3.40;;;2.78;;
63499;SDS011;49654;51.142;14.924;2023-05-29T09:48:12;4.60;;;3.05;;
63499;SDS011;49654;51.142;14.924;2023-05-29T09:50:40;10.60;;;3.25;;
63499;SDS011;49654;51.142;14.924;2023-05-29T09:53:15;6.45;;;2.92;;
63499;SDS011;49654;51.142;14.924;2023-05-29T09:55:44;5.30;;;2.97;;
63499;SDS011;49654;51.142;14.924;2023-05-29T09:58:12;5.75;;;2.58;;
63499;SDS011;49654;51.142;14.924;2023-05-29T10:00:41;3.58;;;2.47;;
63499;SDS011;49654;51.142;14.924;2023-05-29T10:03:09;5.38;;;2.75;;
63499;SDS011;49654;51.142;14.924;2023-05-29T10:05:37;3.63;;;2.58;;
63499;SDS011;49654;51.142;14.924;2023-05-29T10:08:04;3.92;;;2.70;;
63499;SDS011;49654;51.142;14.924;2023-05-29T10:10:32;4.20;;;2.72;;
63499;SDS011;49654;51.142;14.924;2023-05-29T10:13:01;5.10;;;2.30;;
63499;SDS011;49654;51.142;14.924;2023-05-29T10:15:29;3.80;;;2.50;;
63499;SDS011;49654;51.142;14.924;2023-05-29T10:17:59;5.68;;;2.92;;
63499;SDS011;49654;51.142;14.924;2023-05-29T10:20:31;5.15;;;2.70;;
63499;SDS011;49654;51.142;14.924;2023-05-29T10:23:00;6.45;;;2.80;;
63499;SDS011;49654;51.142;14.924;2023-05-29T10:25:29;5.50;;;2.63;;
63499;SDS011;49654;51.142;14.924;2023-05-29T10:27:58;9.57;;;3.80;;
63499;SDS011;49654;51.142;14.924;2023-05-29T10:30:28;4.97;;;2.90;;
63499;SDS011;49654;51.142;14.924;2023-05-29T10:36:12;4.28;;;2.80;;
63499;SDS011;49654;51.142;14.924;2023-05-29T10:38:40;7.18;;;2.70;;
63499;SDS011;49654;51.142;14.924;2023-05-29T10:41:27;4.82;;;3.25;;
63499;SDS011;49654;51.142;14.924;2023-05-29T10:43:55;6.28;;;3.13;;
63499;SDS011;49654;51.142;14.924;2023-05-29T10:49:23;7.40;;;2.80;;
63499;SDS011;49654;51.142;14.924;2023-05-29T10:51:52;4.70;;;2.90;;
63499;SDS011;49654;51.142;14.924;2023-05-29T10:54:21;4.57;;;3.00;;
63499;SDS011;49654;51.142;14.924;2023-05-29T10:56:51;4.05;;;2.90;;
63499;SDS011;49654;51.142;14.924;2023-05-29T10:59:18;5.28;;;3.17;;
63499;SDS011;49654;51.142;14.924;2023-05-29T11:01:45;5.25;;;3.33;;
63499;SDS011;49654;51.142;14.924;2023-05-29T11:04:25;4.70;;;3.20;;
63499;SDS011;49654;51.142;14.924;2023-05-29T11:06:55;5.05;;;3.50;;
63499;SDS011;49654;51.142;14.924;2023-05-29T11:09:28;5.18;;;3.28;;
63499;SDS011;49654;51.142;14.924;2023-05-29T11:12:10;6.47;;;4.35;;
63499;SDS011;49654;51.142;14.924;2023-05-29T11:14:46;5.15;;;3.70;;
63499;SDS011;49654;51.142;14.924;2023-05-29T11:20:16;5.97;;;3.53;;
63499;SDS011;49654;51.142;14.924;2023-05-29T11:22:56;5.53;;;4.05;;
63499;SDS011;49654;51.142;14.924;2023-05-29T11:25:28;5.93;;;3.80;;
63499;SDS011;49654;51.142;14.924;2023-05-29T11:27:58;4.80;;;3.28;;
63499;SDS011;49654;51.142;14.924;2023-05-29T11:30:26;7.10;;;3.80;;
63499;SDS011;49654;51.142;14.924;2023-05-29T11:32:54;5.75;;;3.50;;
63499;SDS011;49654;51.142;14.924;2023-05-29T11:35:26;4.72;;;3.25;;
63499;SDS011;49654;51.142;14.924;2023-05-29T11:37:57;5.53;;;3.40;;
63499;SDS011;49654;51.142;14.924;2023-05-29T11:40:24;4.57;;;3.20;;
63499;SDS011;49654;51.142;14.924;2023-05-29T11:42:51;6.63;;;3.47;;
63499;SDS011;49654;51.142;14.924;2023-05-29T11:45:20;5.22;;;3.25;;
63499;SDS011;49654;51.142;14.924;2023-05-29T11:47:52;5.05;;;3.15;;
63499;SDS011;49654;51.142;14.924;2023-05-29T11:50:19;5.05;;;3.20;;
63499;SDS011;49654;51.142;14.924;2023-05-29T11:52:47;5.07;;;3.70;;
63499;SDS011;49654;51.142;14.924;2023-05-29T11:55:16;6.15;;;3.42;;
63499;SDS011;49654;51.142;14.924;2023-05-29T11:57:43;6.82;;;3.60;;
63499;SDS011;49654;51.142;14.924;2023-05-29T12:00:12;5.35;;;3.25;;
63499;SDS011;49654;51.142;14.924;2023-05-29T12:02:40;4.32;;;2.97;;
63499;SDS011;49654;51.142;14.924;2023-05-29T12:05:08;4.32;;;2.80;;
63499;SDS011;49654;51.142;14.924;2023-05-29T12:07:38;5.10;;;2.70;;
63499;SDS011;49654;51.142;14.924;2023-05-29T12:10:08;5.82;;;2.58;;
63499;SDS011;49654;51.142;14.924;2023-05-29T12:12:37;5.63;;;2.88;;
63499;SDS011;49654;51.142;14.924;2023-05-29T12:15:05;5.43;;;2.80;;
63499;SDS011;49654;51.142;14.924;2023-05-29T12:17:33;5.07;;;2.78;;
63499;SDS011;49654;51.142;14.924;2023-05-29T12:20:01;4.57;;;3.00;;
63499;SDS011;49654;51.142;14.924;2023-05-29T12:22:35;5.30;;;2.80;;
63499;SDS011;49654;51.142;14.924;2023-05-29T12:25:04;3.17;;;2.58;;
63499;SDS011;49654;51.142;14.924;2023-05-29T12:27:32;4.53;;;3.00;;
63499;SDS011;49654;51.142;14.924;2023-05-29T12:30:04;4.70;;;2.92;;
63499;SDS011;49654;51.142;14.924;2023-05-29T12:32:36;5.10;;;3.40;;
63499;SDS011;49654;51.142;14.924;2023-05-29T12:35:10;5.43;;;3.30;;
63499;SDS011;49654;51.142;14.924;2023-05-29T12:37:44;3.90;;;3.05;;
63499;SDS011;49654;51.142;14.924;2023-05-29T12:40:15;4.43;;;2.85;;
63499;SDS011;49654;51.142;14.924;2023-05-29T12:42:43;4.45;;;2.92;;
63499;SDS011;49654;51.142;14.924;2023-05-29T12:45:11;3.80;;;3.00;;
63499;SDS011;49654;51.142;14.924;2023-05-29T12:47:44;5.10;;;3.15;;
63499;SDS011;49654;51.142;14.924;2023-05-29T12:52:58;4.13;;;2.75;;
63499;SDS011;49654;51.142;14.924;2023-05-29T12:55:26;4.13;;;2.90;;
63499;SDS011;49654;51.142;14.924;2023-05-29T12:57:53;6.03;;;2.88;;
63499;SDS011;49654;51.142;14.924;2023-05-29T13:00:22;6.28;;;2.90;;
63499;SDS011;49654;51.142;14.924;2023-05-29T13:02:50;4.07;;;2.90;;
63499;SDS011;49654;51.142;14.924;2023-05-29T13:05:17;3.67;;;3.00;;
63499;SDS011;49654;51.142;14.924;2023-05-29T13:07:48;4.30;;;2.92;;
63499;SDS011;49654;51.142;14.924;2023-05-29T13:10:16;6.38;;;3.17;;
63499;SDS011;49654;51.142;14.924;2023-05-29T13:12:43;4.47;;;2.88;;
63499;SDS011;49654;51.142;14.924;2023-05-29T13:15:11;3.92;;;3.13;;
63499;SDS011;49654;51.142;14.924;2023-05-29T13:17:40;3.13;;;2.83;;
63499;SDS011;49654;51.142;14.924;2023-05-29T13:20:09;4.38;;;2.75;;
63499;SDS011;49654;51.142;14.924;2023-05-29T13:22:37;6.00;;;3.17;;
63499;SDS011;49654;51.142;14.924;2023-05-29T13:25:05;5.38;;;2.95;;
63499;SDS011;49654;51.142;14.924;2023-05-29T13:27:35;6.05;;;3.60;;
63499;SDS011;49654;51.142;14.924;2023-05-29T13:30:02;4.60;;;2.85;;
63499;SDS011;49654;51.142;14.924;2023-05-29T13:32:31;5.32;;;3.50;;
63499;SDS011;49654;51.142;14.924;2023-05-29T13:35:00;3.55;;;2.85;;
63499;SDS011;49654;51.142;14.924;2023-05-29T13:37:27;4.70;;;3.08;;
63499;SDS011;49654;51.142;14.924;2023-05-29T13:39:54;3.58;;;3.03;;
63499;SDS011;49654;51.142;14.924;2023-05-29T13:42:21;3.97;;;3.03;;
63499;SDS011;49654;51.142;14.924;2023-05-29T13:44:48;4.70;;;3.10;;
63499;SDS011;49654;51.142;14.924;2023-05-29T13:47:15;5.20;;;3.17;;
63499;SDS011;49654;51.142;14.924;2023-05-29T13:49:45;4.30;;;2.92;;
63499;SDS011;49654;51.142;14.924;2023-05-29T13:52:14;5.00;;;3.40;;
63499;SDS011;49654;51.142;14.924;2023-05-29T13:54:42;3.92;;;3.10;;
63499;SDS011;49654;51.142;14.924;2023-05-29T13:57:09;6.15;;;3.33;;
63499;SDS011;49654;51.142;14.924;2023-05-29T13:59:35;3.78;;;3.10;;
63499;SDS011;49654;51.142;14.924;2023-05-29T14:02:02;5.65;;;3.20;;
63499;SDS011;49654;51.142;14.924;2023-05-29T14:04:31;5.43;;;3.28;;
63499;SDS011;49654;51.142;14.924;2023-05-29T14:06:58;5.35;;;3.30;;
63499;SDS011;49654;51.142;14.924;2023-05-29T14:09:26;5.75;;;3.50;;
63499;SDS011;49654;51.142;14.924;2023-05-29T14:11:53;6.15;;;3.33;;
63499;SDS011;49654;51.142;14.924;2023-05-29T14:14:21;5.60;;;3.80;;
63499;SDS011;49654;51.142;14.924;2023-05-29T14:16:48;4.22;;;3.00;;
63499;SDS011;49654;51.142;14.924;2023-05-29T14:19:17;5.55;;;3.65;;
63499;SDS011;49654;51.142;14.924;2023-05-29T14:21:44;6.70;;;3.50;;
63499;SDS011;49654;51.142;14.924;2023-05-29T14:24:11;6.18;;;3.97;;
63499;SDS011;49654;51.142;14.924;2023-05-29T14:26:40;6.03;;;3.42;;
63499;SDS011;49654;51.142;14.924;2023-05-29T14:29:08;7.45;;;3.80;;
63499;SDS011;49654;51.142;14.924;2023-05-29T14:31:35;7.10;;;3.90;;
63499;SDS011;49654;51.142;14.924;2023-05-29T14:34:02;14.40;;;4.05;;
63499;SDS011;49654;51.142;14.924;2023-05-29T14:36:29;4.30;;;3.42;;
63499;SDS011;49654;51.142;14.924;2023-05-29T14:38:56;5.57;;;3.53;;
63499;SDS011;49654;51.142;14.924;2023-05-29T14:41:23;5.70;;;3.58;;
63499;SDS011;49654;51.142;14.924;2023-05-29T14:43:52;6.07;;;3.22;;
63499;SDS011;49654;51.142;14.924;2023-05-29T14:46:23;6.47;;;3.67;;
63499;SDS011;49654;51.142;14.924;2023-05-29T14:48:51;5.45;;;3.58;;
63499;SDS011;49654;51.142;14.924;2023-05-29T14:51:19;5.50;;;3.40;;